Time;durP1;ratioP1;P1;durP2;ratioP2;P2;SDS_P1;SDS_P2;PMS_P1;PMS_P2;Temp;Humidity;BMP_temperature;BMP_pressure;BME280_temperature;BME280_humidity;BME280_pressure;Samples;Min_cycle;Max_cycle;Signal;HPM_P1;HPM_P2
2023/06/13 00:01:03;;;;;;;17.20;11.18;;;;;;;;;;5016920;28;20045;-61
2023/06/13 00:03:33;;;;;;;17.17;10.65;;;;;;;;;;5019748;28;20505;-61
2023/06/13 00:06:02;;;;;;;17.87;10.93;;;;;;;;;;5019039;28;20033;-62
2023/06/13 00:08:32;;;;;;;19.83;11.95;;;;;;;;;;5007366;28;20128;-62
2023/06/13 00:11:02;;;;;;;16.90;11.90;;;;;;;;;;5022077;28;20414;-61
2023/06/13 00:13:30;;;;;;;19.92;11.30;;;;;;;;;;5008547;28;20045;-61
2023/06/13 00:15:58;;;;;;;17.55;10.95;;;;;;;;;;5026878;28;20095;-61
2023/06/13 00:18:29;;;;;;;16.93;11.37;;;;;;;;;;5015706;28;20618;-61
2023/06/13 00:20:58;;;;;;;19.38;11.57;;;;;;;;;;5030395;28;20025;-61
2023/06/13 00:23:26;;;;;;;18.58;11.20;;;;;;;;;;5013086;28;20457;-61
2023/06/13 00:25:54;;;;;;;19.50;11.80;;;;;;;;;;5016303;28;20037;-61
2023/06/13 00:28:23;;;;;;;17.67;11.50;;;;;;;;;;5023590;28;20056;-57
2023/06/13 00:30:51;;;;;;;19.23;12.60;;;;;;;;;;5020796;28;20033;-61
2023/06/13 00:33:20;;;;;;;18.00;12.15;;;;;;;;;;5003857;28;20124;-61
2023/06/13 00:35:48;;;;;;;19.58;12.63;;;;;;;;;;5021023;28;20040;-61
2023/06/13 00:38:23;;;;;;;19.63;12.27;;;;;;;;;;5013629;28;21047;-61
2023/06/13 00:40:51;;;;;;;18.02;11.73;;;;;;;;;;5009708;28;20137;-61
2023/06/13 00:43:20;;;;;;;19.43;12.67;;;;;;;;;;5020437;28;20048;-61
2023/06/13 00:45:49;;;;;;;20.05;12.50;;;;;;;;;;5016731;28;20045;-61
2023/06/13 00:48:17;;;;;;;20.17;12.60;;;;;;;;;;5010683;28;20055;-61
2023/06/13 00:50:47;;;;;;;21.40;13.77;;;;;;;;;;5025871;28;20041;-61
2023/06/13 00:53:18;;;;;;;20.85;14.05;;;;;;;;;;5011406;28;20045;-61
2023/06/13 00:55:46;;;;;;;24.07;14.13;;;;;;;;;;5030271;28;20051;-62
2023/06/13 00:58:14;;;;;;;23.23;13.50;;;;;;;;;;5008590;28;20045;-61
2023/06/13 01:00:44;;;;;;;23.42;13.95;;;;;;;;;;5021232;28;20041;-59
2023/06/13 01:03:15;;;;;;;21.15;14.50;;;;;;;;;;5007927;28;20075;-62
2023/06/13 01:05:43;;;;;;;22.73;13.80;;;;;;;;;;5032646;28;20044;-61
2023/06/13 01:08:12;;;;;;;22.23;14.00;;;;;;;;;;5011594;28;20064;-61
2023/06/13 01:10:41;;;;;;;22.92;13.90;;;;;;;;;;5024468;28;20342;-62
2023/06/13 01:13:13;;;;;;;24.67;14.70;;;;;;;;;;5027903;28;20037;-61
2023/06/13 01:15:44;;;;;;;23.75;14.23;;;;;;;;;;5014340;28;20090;-62
2023/06/13 01:18:15;;;;;;;24.63;14.00;;;;;;;;;;5018831;28;20045;-61
2023/06/13 01:20:45;;;;;;;22.20;14.50;;;;;;;;;;5021568;28;20056;-62
2023/06/13 01:23:22;;;;;;;25.92;15.18;;;;;;;;;;5022018;28;20041;-62
2023/06/13 01:25:57;;;;;;;24.05;15.18;;;;;;;;;;5020620;28;20483;-61
2023/06/13 01:28:26;;;;;;;25.38;15.55;;;;;;;;;;5013929;28;20070;-61
2023/06/13 01:30:55;;;;;;;23.30;15.88;;;;;;;;;;5005028;28;20025;-61
2023/06/13 01:33:23;;;;;;;26.87;15.93;;;;;;;;;;5011249;28;20668;-61
2023/06/13 01:35:51;;;;;;;26.40;16.60;;;;;;;;;;5018551;28;20045;-61
2023/06/13 01:38:20;;;;;;;25.67;15.30;;;;;;;;;;5018243;28;20156;-64
2023/06/13 01:40:49;;;;;;;23.15;15.23;;;;;;;;;;5019975;28;20033;-64
2023/06/13 01:43:17;;;;;;;24.10;16.10;;;;;;;;;;5014600;28;20040;-63
2023/06/13 01:45:47;;;;;;;25.20;16.17;;;;;;;;;;5022135;28;20037;-63
2023/06/13 01:48:17;;;;;;;25.40;15.32;;;;;;;;;;5002997;28;20080;-61
2023/06/13 01:50:47;;;;;;;23.92;15.48;;;;;;;;;;5018646;28;20502;-61
2023/06/13 01:53:20;;;;;;;27.65;15.35;;;;;;;;;;5013703;28;20071;-61
2023/06/13 01:55:52;;;;;;;24.20;15.73;;;;;;;;;;5024232;28;20051;-61
2023/06/13 01:58:23;;;;;;;22.40;14.97;;;;;;;;;;5012914;28;20052;-61
2023/06/13 02:00:55;;;;;;;24.55;14.85;;;;;;;;;;5028793;28;20055;-61
2023/06/13 02:03:24;;;;;;;24.50;15.38;;;;;;;;;;4992485;28;20037;-60
2023/06/13 02:05:53;;;;;;;21.55;15.52;;;;;;;;;;5021249;28;20079;-60
2023/06/13 02:08:20;;;;;;;24.27;14.95;;;;;;;;;;5011812;28;20041;-61
2023/06/13 02:10:48;;;;;;;24.87;15.90;;;;;;;;;;5018525;28;20052;-61
2023/06/13 02:13:16;;;;;;;24.98;15.77;;;;;;;;;;5022009;28;20041;-61
2023/06/13 02:15:44;;;;;;;26.08;15.85;;;;;;;;;;5015554;28;20490;-61
2023/06/13 02:18:15;;;;;;;24.88;15.98;;;;;;;;;;5015648;28;20055;-61
2023/06/13 02:20:43;;;;;;;25.75;16.42;;;;;;;;;;5020161;28;20112;-59
2023/06/13 02:23:11;;;;;;;24.80;16.27;;;;;;;;;;5020641;28;20121;-63
2023/06/13 02:25:39;;;;;;;23.95;15.35;;;;;;;;;;5004802;28;20598;-60
2023/06/13 02:28:06;;;;;;;25.77;15.43;;;;;;;;;;5021478;28;20044;-61
2023/06/13 02:30:34;;;;;;;25.27;16.25;;;;;;;;;;5010500;28;20588;-61
2023/06/13 02:33:03;;;;;;;26.10;15.65;;;;;;;;;;5021453;28;20048;-61
2023/06/13 02:35:33;;;;;;;27.87;16.40;;;;;;;;;;5014967;28;20045;-61
2023/06/13 02:38:00;;;;;;;25.77;16.17;;;;;;;;;;5015545;28;20044;-61
2023/06/13 02:40:28;;;;;;;26.58;16.33;;;;;;;;;;5017013;28;20115;-61
2023/06/13 02:42:58;;;;;;;27.17;16.02;;;;;;;;;;5020042;28;20033;-61
2023/06/13 02:45:25;;;;;;;24.65;15.95;;;;;;;;;;5016960;28;20053;-61
2023/06/13 02:47:54;;;;;;;24.60;15.63;;;;;;;;;;5040293;28;20515;-61
2023/06/13 02:50:23;;;;;;;30.23;15.88;;;;;;;;;;5003212;28;20044;-61
2023/06/13 02:52:51;;;;;;;25.48;15.90;;;;;;;;;;4985337;28;20487;-61
2023/06/13 02:55:20;;;;;;;24.90;15.57;;;;;;;;;;5028015;28;20045;-60
2023/06/13 02:57:48;;;;;;;24.33;16.13;;;;;;;;;;5015567;28;20482;-61
2023/06/13 03:00:16;;;;;;;26.97;16.17;;;;;;;;;;4981539;28;20041;-60
2023/06/13 03:02:45;;;;;;;27.10;17.13;;;;;;;;;;5008159;28;20040;-61
2023/06/13 03:05:14;;;;;;;27.27;16.58;;;;;;;;;;5009906;28;20395;-61
2023/06/13 03:07:46;;;;;;;25.65;16.73;;;;;;;;;;5000640;28;20069;-61
2023/06/13 03:10:16;;;;;;;27.45;16.83;;;;;;;;;;5024934;28;20048;-64
2023/06/13 03:12:47;;;;;;;26.63;17.47;;;;;;;;;;5023291;28;20037;-63
2023/06/13 03:15:16;;;;;;;29.08;17.17;;;;;;;;;;5008425;28;20049;-61
2023/06/13 03:17:45;;;;;;;25.92;16.33;;;;;;;;;;5004935;28;20125;-61
2023/06/13 03:20:13;;;;;;;26.50;16.25;;;;;;;;;;5016645;28;20132;-61
2023/06/13 03:22:40;;;;;;;24.52;15.77;;;;;;;;;;4997417;28;20037;-62
2023/06/13 03:25:08;;;;;;;24.70;15.70;;;;;;;;;;5017953;28;20044;-62
2023/06/13 03:27:37;;;;;;;27.02;15.95;;;;;;;;;;5020063;28;20041;-61
2023/06/13 03:30:06;;;;;;;25.13;15.82;;;;;;;;;;5005436;28;20045;-62
2023/06/13 03:32:34;;;;;;;25.67;17.05;;;;;;;;;;5019395;28;20212;-61
2023/06/13 03:35:02;;;;;;;28.45;16.83;;;;;;;;;;5006153;28;20053;-61
2023/06/13 03:37:30;;;;;;;33.87;16.67;;;;;;;;;;4984221;28;20077;-61
2023/06/13 03:39:58;;;;;;;27.98;17.48;;;;;;;;;;5017355;28;20033;-61
2023/06/13 03:42:26;;;;;;;28.85;18.17;;;;;;;;;;5024659;28;20045;-61
2023/06/13 03:44:55;;;;;;;30.10;18.48;;;;;;;;;;5021808;28;20052;-61
2023/06/13 03:47:25;;;;;;;28.65;18.45;;;;;;;;;;5020921;28;20052;-59
2023/06/13 03:49:53;;;;;;;31.53;19.50;;;;;;;;;;5020660;28;20040;-61
2023/06/13 03:52:20;;;;;;;31.70;19.40;;;;;;;;;;5005557;28;20056;-61
2023/06/13 03:54:48;;;;;;;34.55;20.17;;;;;;;;;;5011180;28;20495;-62
2023/06/13 03:57:16;;;;;;;33.65;20.00;;;;;;;;;;5012245;28;20055;-61
2023/06/13 03:59:44;;;;;;;31.60;19.40;;;;;;;;;;5011508;28;20034;-62
2023/06/13 04:02:13;;;;;;;32.77;19.50;;;;;;;;;;5020406;28;20041;-62
2023/06/13 04:04:44;;;;;;;30.15;19.25;;;;;;;;;;5023641;28;20064;-61
2023/06/13 04:07:12;;;;;;;32.08;18.70;;;;;;;;;;5002242;28;21777;-61
2023/06/13 04:09:42;;;;;;;32.55;18.65;;;;;;;;;;5017060;28;20499;-61
2023/06/13 04:12:11;;;;;;;31.13;18.48;;;;;;;;;;5019494;28;20040;-61
2023/06/13 04:14:39;;;;;;;29.70;19.23;;;;;;;;;;5006377;28;20045;-61
2023/06/13 04:17:08;;;;;;;30.83;18.88;;;;;;;;;;5011055;28;20045;-62
2023/06/13 04:19:37;;;;;;;29.45;17.83;;;;;;;;;;5015707;28;20045;-61
2023/06/13 04:22:06;;;;;;;29.73;17.38;;;;;;;;;;5014423;28;20029;-61
2023/06/13 04:24:33;;;;;;;30.33;18.88;;;;;;;;;;5027066;28;20055;-62
2023/06/13 04:27:03;;;;;;;26.80;16.80;;;;;;;;;;5014898;28;20420;-62
2023/06/13 04:29:31;;;;;;;28.73;17.00;;;;;;;;;;5026940;28;20127;-61
2023/06/13 04:32:02;;;;;;;25.63;14.82;;;;;;;;;;5019429;28;20036;-62
2023/06/13 04:34:31;;;;;;;23.05;14.85;;;;;;;;;;5026192;28;20045;-62
2023/06/13 04:37:04;;;;;;;26.23;14.30;;;;;;;;;;4999838;28;20045;-62
2023/06/13 04:39:31;;;;;;;22.17;13.43;;;;;;;;;;5031814;28;20041;-62
2023/06/13 04:42:01;;;;;;;22.52;13.88;;;;;;;;;;5016918;28;20048;-62
2023/06/13 04:44:28;;;;;;;23.48;13.80;;;;;;;;;;5015907;28;20511;-61
2023/06/13 04:46:57;;;;;;;22.85;13.35;;;;;;;;;;5022522;28;20040;-62
2023/06/13 04:49:27;;;;;;;22.25;12.63;;;;;;;;;;5026480;28;20470;-61
2023/06/13 04:51:56;;;;;;;21.17;12.37;;;;;;;;;;5014678;28;20053;-62
2023/06/13 04:54:26;;;;;;;21.88;12.65;;;;;;;;;;5011112;28;20454;-61
2023/06/13 04:56:54;;;;;;;21.77;12.48;;;;;;;;;;5006023;28;20570;-59
2023/06/13 04:59:22;;;;;;;18.90;11.75;;;;;;;;;;5020264;28;20048;-55
2023/06/13 05:01:49;;;;;;;18.33;10.73;;;;;;;;;;5011395;28;20041;-60
2023/06/13 05:04:17;;;;;;;20.83;9.93;;;;;;;;;;5021002;28;20610;-60
2023/06/13 05:06:45;;;;;;;17.58;10.20;;;;;;;;;;5015981;28;20071;-59
2023/06/13 05:09:14;;;;;;;18.17;9.73;;;;;;;;;;4997536;28;20146;-60
2023/06/13 05:11:43;;;;;;;17.20;9.95;;;;;;;;;;5023359;28;20029;-63
2023/06/13 05:14:11;;;;;;;17.85;10.02;;;;;;;;;;5012998;28;20306;-60
2023/06/13 05:16:40;;;;;;;14.77;9.47;;;;;;;;;;5023238;28;20051;-60
2023/06/13 05:19:08;;;;;;;17.33;9.80;;;;;;;;;;5013086;28;20043;-60
2023/06/13 05:21:36;;;;;;;16.90;9.05;;;;;;;;;;5023056;28;20051;-60
2023/06/13 05:24:04;;;;;;;13.65;8.63;;;;;;;;;;5013522;28;20064;-59
2023/06/13 05:26:33;;;;;;;14.20;8.70;;;;;;;;;;5022168;28;20072;-60
2023/06/13 05:29:04;;;;;;;14.07;7.70;;;;;;;;;;5016252;28;20036;-60
2023/06/13 05:31:35;;;;;;;11.82;8.20;;;;;;;;;;5022997;28;20049;-61
2023/06/13 05:34:03;;;;;;;13.88;7.90;;;;;;;;;;5021346;28;20098;-60
2023/06/13 05:36:32;;;;;;;13.35;7.75;;;;;;;;;;4999436;28;20138;-60
2023/06/13 05:39:01;;;;;;;12.77;7.65;;;;;;;;;;5021660;28;20045;-60
2023/06/13 05:41:29;;;;;;;13.37;7.30;;;;;;;;;;5006148;28;20487;-60
2023/06/13 05:43:57;;;;;;;14.90;7.15;;;;;;;;;;5021085;28;20033;-61
2023/06/13 05:46:26;;;;;;;13.38;7.97;;;;;;;;;;5014081;28;20036;-60
2023/06/13 05:48:53;;;;;;;11.32;7.05;;;;;;;;;;5001778;28;20041;-61
2023/06/13 05:51:21;;;;;;;13.13;6.88;;;;;;;;;;5024544;28;20492;-60
2023/06/13 05:53:50;;;;;;;11.47;6.93;;;;;;;;;;5018657;28;20049;-60
2023/06/13 05:56:18;;;;;;;12.48;7.50;;;;;;;;;;5011749;28;20578;-60
2023/06/13 05:58:46;;;;;;;11.65;6.65;;;;;;;;;;5017357;28;20090;-59
2023/06/13 06:01:13;;;;;;;11.68;7.10;;;;;;;;;;5022075;28;20044;-60
2023/06/13 06:03:42;;;;;;;14.23;7.82;;;;;;;;;;5016947;28;20044;-60
2023/06/13 06:06:10;;;;;;;13.60;5.97;;;;;;;;;;5021816;28;20041;-60
2023/06/13 06:08:38;;;;;;;11.90;6.35;;;;;;;;;;5023919;28;20049;-60
2023/06/13 06:11:06;;;;;;;10.73;6.57;;;;;;;;;;5010235;28;20041;-61
2023/06/13 06:13:34;;;;;;;12.60;6.85;;;;;;;;;;5016273;28;20473;-60
2023/06/13 06:16:02;;;;;;;14.43;6.65;;;;;;;;;;5020670;28;20033;-61
2023/06/13 06:18:29;;;;;;;9.87;6.00;;;;;;;;;;5010491;28;20045;-60
2023/06/13 06:21:00;;;;;;;11.73;6.70;;;;;;;;;;5021400;28;20098;-60
2023/06/13 06:23:28;;;;;;;13.60;7.60;;;;;;;;;;5025351;28;20037;-60
2023/06/13 06:25:56;;;;;;;15.80;6.68;;;;;;;;;;5016775;28;20037;-60
2023/06/13 06:28:24;;;;;;;12.68;7.10;;;;;;;;;;5016822;28;20065;-60
2023/06/13 06:30:52;;;;;;;14.50;6.87;;;;;;;;;;5006777;28;20040;-60
2023/06/13 06:33:21;;;;;;;16.20;6.88;;;;;;;;;;5012368;28;20131;-60
2023/06/13 06:35:49;;;;;;;15.13;7.07;;;;;;;;;;5015309;28;20041;-60
2023/06/13 06:38:18;;;;;;;11.40;6.85;;;;;;;;;;5004091;28;20053;-60
2023/06/13 06:40:46;;;;;;;14.20;6.85;;;;;;;;;;5021975;28;20458;-60
2023/06/13 06:43:14;;;;;;;12.23;6.67;;;;;;;;;;5007202;28;20045;-59
2023/06/13 06:45:42;;;;;;;15.57;7.50;;;;;;;;;;5020098;28;20283;-60
2023/06/13 06:48:09;;;;;;;12.90;6.90;;;;;;;;;;4994446;28;20044;-60
2023/06/13 06:50:37;;;;;;;15.27;7.47;;;;;;;;;;4992866;28;20069;-60
2023/06/13 06:53:05;;;;;;;14.18;7.40;;;;;;;;;;5008154;28;20746;-60
2023/06/13 06:55:34;;;;;;;15.27;8.00;;;;;;;;;;5018640;28;20037;-63
2023/06/13 06:58:02;;;;;;;15.23;7.47;;;;;;;;;;5011332;28;20511;-64
2023/06/13 07:00:30;;;;;;;14.55;7.45;;;;;;;;;;5012079;28;20041;-63
2023/06/13 07:02:59;;;;;;;13.30;7.13;;;;;;;;;;5026261;28;20059;-63
2023/06/13 07:05:27;;;;;;;12.93;7.32;;;;;;;;;;5012809;28;20065;-62
2023/06/13 07:07:55;;;;;;;10.47;6.60;;;;;;;;;;5021238;28;20091;-63
2023/06/13 07:10:25;;;;;;;12.95;7.15;;;;;;;;;;5017404;28;20064;-63
2023/06/13 07:12:55;;;;;;;11.60;6.90;;;;;;;;;;5031164;28;20453;-63
2023/06/13 07:15:23;;;;;;;11.73;7.57;;;;;;;;;;5019656;28;20041;-63
2023/06/13 07:17:51;;;;;;;12.32;7.38;;;;;;;;;;5016781;28;20175;-62
2023/06/13 07:20:22;;;;;;;13.20;7.30;;;;;;;;;;5018471;28;20368;-63
2023/06/13 07:22:50;;;;;;;15.32;7.60;;;;;;;;;;5026776;28;20037;-63
2023/06/13 07:25:17;;;;;;;13.70;7.82;;;;;;;;;;5017116;28;20052;-63
2023/06/13 07:27:48;;;;;;;12.77;6.72;;;;;;;;;;5022461;28;20461;-61
2023/06/13 07:30:17;;;;;;;12.23;7.53;;;;;;;;;;5013524;28;20480;-62
2023/06/13 07:32:45;;;;;;;12.00;7.90;;;;;;;;;;5022194;28;20048;-62
2023/06/13 07:35:15;;;;;;;13.63;7.32;;;;;;;;;;5014787;28;20128;-61
2023/06/13 07:37:42;;;;;;;15.88;8.35;;;;;;;;;;5021906;28;20071;-60
2023/06/13 07:40:11;;;;;;;12.90;8.10;;;;;;;;;;5014891;28;20045;-62
2023/06/13 07:42:39;;;;;;;15.63;8.45;;;;;;;;;;5019918;28;20484;-61
2023/06/13 07:45:07;;;;;;;11.97;7.13;;;;;;;;;;5012896;28;20048;-61
2023/06/13 07:47:37;;;;;;;16.52;8.82;;;;;;;;;;5018524;28;20044;-61
2023/06/13 07:50:06;;;;;;;14.52;8.90;;;;;;;;;;5027611;28;20475;-61
2023/06/13 07:52:36;;;;;;;13.32;7.80;;;;;;;;;;5006340;28;20037;-63
2023/06/13 07:55:07;;;;;;;14.18;8.38;;;;;;;;;;5028713;28;20495;-61
2023/06/13 07:57:35;;;;;;;12.43;7.60;;;;;;;;;;4979144;28;20045;-61
2023/06/13 08:00:23;;;;;;;19.55;7.97;;;;;;;;;;5001517;28;20782;-61
2023/06/13 08:02:53;;;;;;;15.95;8.60;;;;;;;;;;5000839;28;20037;-60
2023/06/13 08:05:21;;;;;;;13.45;8.02;;;;;;;;;;4996321;28;20389;-61
2023/06/13 08:07:50;;;;;;;14.13;8.00;;;;;;;;;;5000067;28;20044;-61
2023/06/13 08:10:18;;;;;;;10.00;6.87;;;;;;;;;;5009613;28;20115;-61
2023/06/13 08:12:48;;;;;;;12.55;7.00;;;;;;;;;;5005234;28;20563;-60
2023/06/13 08:15:16;;;;;;;12.48;7.15;;;;;;;;;;5018536;28;20064;-60
2023/06/13 08:17:44;;;;;;;12.65;7.60;;;;;;;;;;5009292;28;20109;-59
2023/06/13 08:20:17;;;;;;;12.18;7.20;;;;;;;;;;5026511;28;20048;-60
2023/06/13 08:22:45;;;;;;;12.63;7.60;;;;;;;;;;5024333;28;20033;-60
2023/06/13 08:25:13;;;;;;;16.70;7.93;;;;;;;;;;5020035;28;20040;-60
2023/06/13 08:27:41;;;;;;;12.50;7.88;;;;;;;;;;5032645;28;20033;-61
2023/06/13 08:30:10;;;;;;;12.60;7.47;;;;;;;;;;5008888;28;20037;-63
2023/06/13 08:32:38;;;;;;;11.02;6.88;;;;;;;;;;5029397;28;20102;-62
2023/06/13 08:35:06;;;;;;;11.77;7.33;;;;;;;;;;5013122;28;20053;-62
2023/06/13 08:37:35;;;;;;;14.52;7.30;;;;;;;;;;5024421;28;20122;-62
2023/06/13 08:40:05;;;;;;;13.55;6.93;;;;;;;;;;4999601;28;20273;-62
2023/06/13 08:42:33;;;;;;;13.68;8.00;;;;;;;;;;5032238;28;20078;-62
2023/06/13 08:45:02;;;;;;;10.90;6.90;;;;;;;;;;5018083;28;20043;-63
2023/06/13 08:47:30;;;;;;;13.87;8.07;;;;;;;;;;5022308;28;20029;-60
2023/06/13 08:50:05;;;;;;;12.80;8.18;;;;;;;;;;5021676;28;20111;-60
2023/06/13 08:52:38;;;;;;;19.27;7.82;;;;;;;;;;5020462;28;20051;-61
2023/06/13 08:55:10;;;;;;;13.45;7.60;;;;;;;;;;5016107;28;20110;-61
2023/06/13 08:57:59;;;;;;;12.82;7.72;;;;;;;;;;5025162;28;20392;-61
2023/06/13 09:00:28;;;;;;;12.47;7.83;;;;;;;;;;5017383;28;20033;-61
2023/06/13 09:02:56;;;;;;;12.57;7.35;;;;;;;;;;5025062;28;20035;-61
2023/06/13 09:05:24;;;;;;;12.07;7.45;;;;;;;;;;5021618;28;20041;-61
2023/06/13 09:07:55;;;;;;;14.68;8.20;;;;;;;;;;5022350;28;20040;-61
2023/06/13 09:10:46;;;;;;;12.70;8.45;;;;;;;;;;5012865;28;20270;-63
2023/06/13 09:13:15;;;;;;;16.77;7.63;;;;;;;;;;5019601;28;20041;-62
2023/06/13 09:15:44;;;;;;;13.10;7.55;;;;;;;;;;5016490;28;20044;-61
2023/06/13 09:18:12;;;;;;;11.95;7.55;;;;;;;;;;5022134;28;20049;-62
2023/06/13 09:20:40;;;;;;;14.52;7.80;;;;;;;;;;5014110;28;20044;-62
2023/06/13 09:23:12;;;;;;;11.20;8.23;;;;;;;;;;5013174;28;20083;-62
2023/06/13 09:25:40;;;;;;;11.40;7.63;;;;;;;;;;5013530;28;20041;-62
2023/06/13 09:28:27;;;;;;;19.55;8.65;;;;;;;;;;4993208;28;20442;-62
2023/06/13 09:30:57;;;;;;;14.45;8.50;;;;;;;;;;5021209;28;20037;-62
2023/06/13 09:33:25;;;;;;;14.18;9.23;;;;;;;;;;5010183;28;20045;-61
2023/06/13 09:35:55;;;;;;;12.65;8.32;;;;;;;;;;5010964;28;20120;-62
2023/06/13 09:38:26;;;;;;;17.07;7.43;;;;;;;;;;5000661;28;20052;-62
2023/06/13 09:40:55;;;;;;;14.80;7.82;;;;;;;;;;5027142;28;20036;-62
2023/06/13 09:43:24;;;;;;;14.18;8.57;;;;;;;;;;5007138;28;20052;-62
2023/06/13 09:45:53;;;;;;;15.82;8.18;;;;;;;;;;5009832;28;20940;-62
2023/06/13 09:48:22;;;;;;;13.77;8.48;;;;;;;;;;5005803;28;20375;-62
2023/06/13 09:50:51;;;;;;;16.43;8.13;;;;;;;;;;5000878;28;20094;-63
2023/06/13 09:53:19;;;;;;;13.43;8.82;;;;;;;;;;5017084;28;20036;-61
2023/06/13 09:55:57;;;;;;;11.60;7.75;;;;;;;;;;5025769;28;20045;-62
2023/06/13 09:58:27;;;;;;;14.65;8.32;;;;;;;;;;4997397;28;20041;-63
2023/06/13 10:01:03;;;;;;;16.65;9.38;;;;;;;;;;4992813;28;20037;-61
2023/06/13 10:03:31;;;;;;;12.20;8.27;;;;;;;;;;4999483;28;20052;-62
2023/06/13 10:06:01;;;;;;;14.85;8.52;;;;;;;;;;4993246;28;20950;-62
2023/06/13 10:08:31;;;;;;;13.82;8.15;;;;;;;;;;5013062;28;20083;-62
2023/06/13 10:11:07;;;;;;;15.73;9.50;;;;;;;;;;5000532;28;20033;-63
2023/06/13 10:13:41;;;;;;;13.38;8.60;;;;;;;;;;5000657;28;20056;-62
2023/06/13 10:16:11;;;;;;;19.20;9.37;;;;;;;;;;4996546;28;20040;-62
2023/06/13 10:18:41;;;;;;;13.75;9.05;;;;;;;;;;5005940;28;20063;-62
2023/06/13 10:21:11;;;;;;;15.80;8.77;;;;;;;;;;5010641;28;20033;-62
2023/06/13 10:23:44;;;;;;;12.35;7.15;;;;;;;;;;4998782;28;20499;-62
2023/06/13 10:26:15;;;;;;;13.18;8.27;;;;;;;;;;5001699;28;20136;-62
2023/06/13 10:28:54;;;;;;;12.43;8.00;;;;;;;;;;5001251;28;20056;-61
2023/06/13 10:31:26;;;;;;;12.38;8.00;;;;;;;;;;5011054;28;20064;-62
2023/06/13 10:34:07;;;;;;;15.50;7.75;;;;;;;;;;5009316;28;20457;-62
2023/06/13 10:36:42;;;;;;;14.77;8.00;;;;;;;;;;4995907;28;20045;-62
2023/06/13 10:39:30;;;;;;;14.02;7.55;;;;;;;;;;4970734;28;20054;-62
2023/06/13 10:42:19;;;;;;;14.70;7.80;;;;;;;;;;4961661;28;20502;-62
2023/06/13 10:44:50;;;;;;;13.80;7.63;;;;;;;;;;4980231;28;20034;-62
2023/06/13 10:47:18;;;;;;;11.07;6.65;;;;;;;;;;4975412;28;20064;-62
2023/06/13 10:49:48;;;;;;;17.08;7.95;;;;;;;;;;4974575;28;20042;-62
2023/06/13 10:52:18;;;;;;;13.52;7.28;;;;;;;;;;4978552;28;20145;-62
2023/06/13 10:54:49;;;;;;;16.10;6.40;;;;;;;;;;4970186;28;20125;-61
2023/06/13 10:57:18;;;;;;;13.30;7.20;;;;;;;;;;4982179;28;20566;-61
2023/06/13 10:59:48;;;;;;;10.32;6.18;;;;;;;;;;4972941;28;20046;-62
2023/06/13 11:02:17;;;;;;;13.55;7.45;;;;;;;;;;4972911;28;20038;-61
2023/06/13 11:04:48;;;;;;;12.32;7.32;;;;;;;;;;4978481;28;20046;-62
2023/06/13 11:07:26;;;;;;;10.43;6.80;;;;;;;;;;4968916;28;20042;-62
2023/06/13 11:10:19;;;;;;;13.10;6.70;;;;;;;;;;4972040;28;20499;-62
2023/06/13 11:12:49;;;;;;;11.52;7.00;;;;;;;;;;4970743;28;20061;-63
2023/06/13 11:15:24;;;;;;;13.00;7.82;;;;;;;;;;4970814;28;20440;-63
2023/06/13 11:18:14;;;;;;;14.38;8.10;;;;;;;;;;4984927;28;20034;-63
2023/06/13 11:20:47;;;;;;;13.07;9.10;;;;;;;;;;4976010;28;20073;-58
2023/06/13 11:23:16;;;;;;;12.27;8.48;;;;;;;;;;4991024;28;20038;-64
2023/06/13 11:25:44;;;;;;;13.40;8.32;;;;;;;;;;4980438;28;20711;-63
2023/06/13 11:28:15;;;;;;;13.80;9.05;;;;;;;;;;4979473;28;20034;-63
2023/06/13 11:30:45;;;;;;;15.00;9.25;;;;;;;;;;4980786;28;20061;-63
2023/06/13 11:33:13;;;;;;;13.33;7.87;;;;;;;;;;4974129;28;20076;-63
2023/06/13 11:35:48;;;;;;;15.57;8.95;;;;;;;;;;4991945;28;20038;-63
2023/06/13 11:38:31;;;;;;;18.30;9.68;;;;;;;;;;4980288;28;20311;-63
2023/06/13 11:41:00;;;;;;;14.98;10.02;;;;;;;;;;5026388;28;20049;-63
2023/06/13 11:43:29;;;;;;;14.23;9.10;;;;;;;;;;5015627;28;20467;-64
2023/06/13 11:45:58;;;;;;;13.93;8.07;;;;;;;;;;5016687;28;20483;-64
2023/06/13 11:48:25;;;;;;;15.20;10.55;;;;;;;;;;5024273;28;20052;-64
2023/06/13 11:51:08;;;;;;;14.90;10.25;;;;;;;;;;5014710;28;20045;-64
2023/06/13 11:53:49;;;;;;;14.55;8.60;;;;;;;;;;5020070;28;20037;-63
2023/06/13 11:56:18;;;;;;;15.90;9.98;;;;;;;;;;5022189;28;20048;-63
2023/06/13 11:58:48;;;;;;;17.33;9.80;;;;;;;;;;5015681;28;20037;-63
2023/06/13 12:01:16;;;;;;;13.65;9.93;;;;;;;;;;5033050;28;20373;-62
2023/06/13 12:03:45;;;;;;;15.88;10.23;;;;;;;;;;5014049;28;20055;-61
2023/06/13 12:06:13;;;;;;;15.35;9.40;;;;;;;;;;5029002;28;20221;-63
2023/06/13 12:08:42;;;;;;;14.20;10.02;;;;;;;;;;5007100;28;20038;-63
2023/06/13 12:11:11;;;;;;;14.60;9.07;;;;;;;;;;5014929;28;20045;-63
2023/06/13 12:13:54;;;;;;;13.65;9.50;;;;;;;;;;5021066;28;20037;-62
2023/06/13 12:16:22;;;;;;;18.25;10.40;;;;;;;;;;5021185;28;20036;-62
2023/06/13 12:18:51;;;;;;;12.25;8.00;;;;;;;;;;5024404;28;20052;-63
2023/06/13 12:21:18;;;;;;;14.88;10.18;;;;;;;;;;5035739;28;20331;-63
2023/06/13 12:23:47;;;;;;;15.27;10.30;;;;;;;;;;5004842;28;20037;-62
2023/06/13 12:26:17;;;;;;;14.77;8.23;;;;;;;;;;5010943;28;20041;-62
2023/06/13 12:28:47;;;;;;;18.80;10.68;;;;;;;;;;5025784;28;20052;-61
2023/06/13 12:31:28;;;;;;;15.95;8.98;;;;;;;;;;5006281;28;20040;-63
2023/06/13 12:34:04;;;;;;;15.52;9.40;;;;;;;;;;5015691;28;20048;-63
2023/06/13 12:36:37;;;;;;;15.37;9.53;;;;;;;;;;5025079;28;20048;-63
2023/06/13 12:39:05;;;;;;;15.77;10.45;;;;;;;;;;5016892;28;20034;-63
2023/06/13 12:41:33;;;;;;;15.82;9.75;;;;;;;;;;5018828;28;20037;-62
2023/06/13 12:44:01;;;;;;;16.17;9.35;;;;;;;;;;5014507;28;20041;-62
2023/06/13 12:46:30;;;;;;;15.60;9.65;;;;;;;;;;5019218;28;20047;-62
2023/06/13 12:49:02;;;;;;;18.60;10.37;;;;;;;;;;5021722;28;20072;-62
2023/06/13 12:51:30;;;;;;;13.27;9.55;;;;;;;;;;5023781;28;20048;-63
2023/06/13 12:54:09;;;;;;;9.85;6.32;;;;;;;;;;5013243;28;20049;-63
2023/06/13 12:56:36;;;;;;;14.68;8.52;;;;;;;;;;5007506;28;20041;-62
2023/06/13 12:59:06;;;;;;;15.07;9.68;;;;;;;;;;5019717;28;20037;-63
2023/06/13 13:01:35;;;;;;;14.53;9.70;;;;;;;;;;5031875;28;20689;-63
2023/06/13 13:04:03;;;;;;;14.75;10.10;;;;;;;;;;5020352;28;20411;-64
2023/06/13 13:06:31;;;;;;;16.95;9.75;;;;;;;;;;5026770;28;20082;-63
2023/06/13 13:08:59;;;;;;;12.38;8.80;;;;;;;;;;5011657;28;20037;-63
2023/06/13 13:11:27;;;;;;;17.52;9.55;;;;;;;;;;5007493;28;20124;-63
2023/06/13 13:13:55;;;;;;;15.07;9.90;;;;;;;;;;5019217;28;20037;-62
2023/06/13 13:16:23;;;;;;;14.55;9.20;;;;;;;;;;5026573;28;20037;-62
2023/06/13 13:18:52;;;;;;;14.00;8.93;;;;;;;;;;5017865;28;20040;-63
2023/06/13 13:21:20;;;;;;;15.48;9.73;;;;;;;;;;5025574;28;20053;-63
2023/06/13 13:23:48;;;;;;;14.88;9.80;;;;;;;;;;5021446;28;20575;-63
2023/06/13 13:26:16;;;;;;;13.53;8.53;;;;;;;;;;5024758;28;20483;-63
2023/06/13 13:28:43;;;;;;;15.60;8.98;;;;;;;;;;5016391;28;20047;-63
2023/06/13 13:31:11;;;;;;;15.52;9.63;;;;;;;;;;5030361;28;20476;-63
2023/06/13 13:33:39;;;;;;;13.73;9.45;;;;;;;;;;5015405;28;20450;-62
2023/06/13 13:36:08;;;;;;;17.13;9.90;;;;;;;;;;5030086;28;20045;-63
2023/06/13 13:38:36;;;;;;;13.77;9.20;;;;;;;;;;5013075;28;20123;-63
2023/06/13 13:41:04;;;;;;;13.77;8.60;;;;;;;;;;5031061;28;20051;-62
2023/06/13 13:43:33;;;;;;;13.38;8.90;;;;;;;;;;5015349;28;20491;-62
2023/06/13 13:46:01;;;;;;;16.33;8.93;;;;;;;;;;5019104;28;20025;-63
2023/06/13 13:48:29;;;;;;;12.88;9.25;;;;;;;;;;5031334;28;20044;-63
2023/06/13 13:50:57;;;;;;;13.80;8.73;;;;;;;;;;5017244;28;20801;-63
2023/06/13 13:53:28;;;;;;;11.80;8.32;;;;;;;;;;5025679;28;20407;-63
2023/06/13 13:55:59;;;;;;;13.77;8.93;;;;;;;;;;5009015;28;20418;-63
2023/06/13 13:58:27;;;;;;;14.40;8.98;;;;;;;;;;5019358;28;20523;-63
2023/06/13 14:00:55;;;;;;;12.02;9.30;;;;;;;;;;5014846;28;20123;-62
2023/06/13 14:03:23;;;;;;;14.73;9.83;;;;;;;;;;5011875;28;20139;-58
2023/06/13 14:05:51;;;;;;;15.00;9.02;;;;;;;;;;5007512;28;20434;-62
2023/06/13 14:08:18;;;;;;;12.95;8.98;;;;;;;;;;5019073;28;20044;-63
2023/06/13 14:10:47;;;;;;;13.90;9.50;;;;;;;;;;5008312;28;20510;-63
2023/06/13 14:13:16;;;;;;;10.98;6.47;;;;;;;;;;5018557;28;20045;-62
2023/06/13 14:15:43;;;;;;;10.33;6.00;;;;;;;;;;5017180;28;20052;-62
2023/06/13 14:18:11;;;;;;;11.45;7.43;;;;;;;;;;5022852;28;20482;-62
2023/06/13 14:20:39;;;;;;;12.15;8.55;;;;;;;;;;5010765;28;20528;-63
2023/06/13 14:23:07;;;;;;;11.50;6.70;;;;;;;;;;5021408;28;20103;-63
2023/06/13 14:25:35;;;;;;;13.63;9.40;;;;;;;;;;5017585;28;20141;-63
2023/06/13 14:28:04;;;;;;;13.57;9.03;;;;;;;;;;5017261;28;20042;-63
2023/06/13 14:30:31;;;;;;;12.88;9.00;;;;;;;;;;5014971;28;20045;-63
2023/06/13 14:32:59;;;;;;;14.07;9.13;;;;;;;;;;5030380;28;20392;-63
2023/06/13 14:35:28;;;;;;;12.48;8.98;;;;;;;;;;5020022;28;20119;-63
2023/06/13 14:37:57;;;;;;;14.65;8.40;;;;;;;;;;5020616;28;20076;-63
2023/06/13 14:40:29;;;;;;;12.27;7.40;;;;;;;;;;5013416;28;20060;-62